SAS410 EKCH-ESSA
Flight info
| Callsign | SAS410 |
|---|---|
| Flight time | N/A |
| Altitude | 35000 |
| Route | KEMAX DCT RASMU DCT DETSO N873 ARS T317 ELTOK |
| Aircraft | A320/M-SDE3FGHIRWY/LB1 |
Departure
| Time | 2026-05-04 18:28 |
|---|---|
| Airport | Copenhagen Kastrup Airport (EKCH) |
Arrival
| Time | N/A |
|---|---|
| Airport | Stockholm-Arlanda Airport (ESSA) |
| Time | Latitude | Longitude | Altitude | Speed | Heading |
|---|---|---|---|---|---|
| 2026-05-04 17:48 | 55.62795 | 12.64339 | 17 ft | 0 kts | 282° |
| 2026-05-04 17:58 | 55.62795 | 12.64334 | 17 ft | 0 kts | 282° |
| 2026-05-04 18:12 | 55.62795 | 12.64340 | 17 ft | 3 kts | 284° |
| 2026-05-04 18:13 | 55.62785 | 12.64384 | 18 ft | 4 kts | 305° |
| 2026-05-04 18:13 | 55.62767 | 12.64417 | 20 ft | 4 kts | 331° |
| 2026-05-04 18:13 | 55.62763 | 12.64421 | 20 ft | 0 kts | 335° |
| 2026-05-04 18:14 | 55.62755 | 12.64427 | 19 ft | 2 kts | 12° |
| 2026-05-04 18:14 | 55.62739 | 12.64415 | 18 ft | 2 kts | 45° |
| 2026-05-04 18:14 | 55.62731 | 12.64398 | 18 ft | 2 kts | 57° |
| 2026-05-04 18:15 | 55.62707 | 12.64358 | 18 ft | 2 kts | 27° |
| 2026-05-04 18:15 | 55.62677 | 12.64330 | 18 ft | 2 kts | 27° |
| 2026-05-04 18:15 | 55.62662 | 12.64317 | 20 ft | 2 kts | 27° |
| 2026-05-04 18:16 | 55.62647 | 12.64303 | 18 ft | 2 kts | 27° |
| 2026-05-04 18:16 | 55.62632 | 12.64290 | 18 ft | 2 kts | 27° |
| 2026-05-04 18:16 | 55.62617 | 12.64276 | 19 ft | 2 kts | 27° |
| 2026-05-04 18:17 | 55.62587 | 12.64266 | 17 ft | 2 kts | 342° |
| 2026-05-04 18:17 | 55.62573 | 12.64279 | 20 ft | 2 kts | 303° |
| 2026-05-04 18:17 | 55.62554 | 12.64324 | 20 ft | 2 kts | 303° |
| 2026-05-04 18:18 | 55.62545 | 12.64348 | 19 ft | 2 kts | 303° |
| 2026-05-04 18:18 | 55.62544 | 12.64352 | 19 ft | 0 kts | 303° |
| 2026-05-04 18:21 | 55.62556 | 12.64319 | 20 ft | 7 kts | 303° |
| 2026-05-04 18:21 | 55.62567 | 12.64221 | 18 ft | 10 kts | 240° |
| 2026-05-04 18:22 | 55.62507 | 12.64240 | 17 ft | 12 kts | 127° |
| 2026-05-04 18:22 | 55.62455 | 12.64367 | 17 ft | 14 kts | 126° |
| 2026-05-04 18:22 | 55.62383 | 12.64449 | 17 ft | 11 kts | 186° |
| 2026-05-04 18:22 | 55.62354 | 12.64434 | 17 ft | 0 kts | 196° |
| 2026-05-04 18:23 | 55.62337 | 12.64425 | 17 ft | 6 kts | 196° |
| 2026-05-04 18:24 | 55.62279 | 12.64396 | 16 ft | 12 kts | 195° |
| 2026-05-04 18:24 | 55.62183 | 12.64337 | 16 ft | 17 kts | 208° |
| 2026-05-04 18:24 | 55.62074 | 12.64240 | 17 ft | 19 kts | 205° |
| 2026-05-04 18:24 | 55.61947 | 12.64133 | 18 ft | 22 kts | 206° |
| 2026-05-04 18:25 | 55.61827 | 12.64070 | 17 ft | 17 kts | 178° |
| 2026-05-04 18:25 | 55.61747 | 12.64080 | 20 ft | 0 kts | 176° |
| 2026-05-04 18:26 | 55.61746 | 12.64080 | 20 ft | 1 kts | 176° |
| 2026-05-04 18:26 | 55.61725 | 12.64083 | 18 ft | 7 kts | 175° |
| 2026-05-04 18:26 | 55.61672 | 12.64090 | 21 ft | 7 kts | 175° |
| 2026-05-04 18:27 | 55.61617 | 12.64059 | 23 ft | 14 kts | 215° |
| 2026-05-04 18:27 | 55.61400 | 12.63721 | 18 ft | 79 kts | 223° |
| 2026-05-04 18:27 | 55.60823 | 12.62832 | 18 ft | 139 kts | 223° |
| 2026-05-04 18:27 | 55.60014 | 12.61551 | 364 ft | 156 kts | 224° |
| 2026-05-04 18:28 | 55.59204 | 12.60312 | 1111 ft | 153 kts | 224° |
| 2026-05-04 18:28 | 55.58379 | 12.59058 | 1659 ft | 163 kts | 225° |
| 2026-05-04 18:28 | 55.57485 | 12.57664 | 2060 ft | 181 kts | 225° |
| 2026-05-04 18:28 | 55.56459 | 12.56136 | 2391 ft | 206 kts | 216° |
| 2026-05-04 18:29 | 55.55084 | 12.54941 | 2776 ft | 234 kts | 204° |
| 2026-05-04 18:29 | 55.53471 | 12.53937 | 3326 ft | 256 kts | 200° |
| 2026-05-04 18:29 | 55.51744 | 12.52971 | 4241 ft | 263 kts | 200° |
| 2026-05-04 18:29 | 55.49987 | 12.51994 | 5258 ft | 265 kts | 201° |
| 2026-05-04 18:30 | 55.46429 | 12.49985 | 6756 ft | 273 kts | 196° |
| 2026-05-04 18:30 | 55.44544 | 12.49989 | 6926 ft | 281 kts | 169° |
| 2026-05-04 18:30 | 55.42810 | 12.51670 | 7493 ft | 293 kts | 139° |
| 2026-05-04 18:31 | 55.41661 | 12.54667 | 8383 ft | 302 kts | 112° |
| 2026-05-04 18:31 | 55.40941 | 12.58215 | 9280 ft | 306 kts | 117° |
| 2026-05-04 18:31 | 55.39872 | 12.61459 | 10110 ft | 309 kts | 124° |
| 2026-05-04 18:31 | 55.38666 | 12.64772 | 10404 ft | 333 kts | 125° |
| 2026-05-04 18:32 | 55.37363 | 12.68312 | 10639 ft | 356 kts | 125° |
| 2026-05-04 18:32 | 55.36098 | 12.72154 | 11116 ft | 370 kts | 114° |
| 2026-05-04 18:32 | 55.35505 | 12.76596 | 11781 ft | 379 kts | 93° |
| 2026-05-04 18:32 | 55.35805 | 12.81131 | 12442 ft | 383 kts | 71° |
| 2026-05-04 18:33 | 55.37017 | 12.85290 | 13122 ft | 385 kts | 49° |
| 2026-05-04 18:33 | 55.38972 | 12.88415 | 13783 ft | 382 kts | 27° |
| 2026-05-04 18:33 | 55.41386 | 12.90416 | 14408 ft | 382 kts | 18° |
| 2026-05-04 18:33 | 55.43844 | 12.92247 | 15048 ft | 385 kts | 18° |
| 2026-05-04 18:34 | 55.46319 | 12.94101 | 15679 ft | 389 kts | 19° |
| 2026-05-04 18:34 | 55.48824 | 12.95994 | 16305 ft | 392 kts | 19° |
| 2026-05-04 18:34 | 55.51362 | 12.97764 | 16930 ft | 392 kts | 11° |
| 2026-05-04 18:34 | 55.54037 | 12.98268 | 17554 ft | 384 kts | 351° |
| 2026-05-04 18:35 | 55.56682 | 12.97634 | 18218 ft | 384 kts | 346° |
| 2026-05-04 18:35 | 55.59330 | 12.96864 | 18815 ft | 387 kts | 345° |
| 2026-05-04 18:35 | 55.62002 | 12.96077 | 19436 ft | 391 kts | 345° |
| 2026-05-04 18:35 | 55.64689 | 12.95279 | 20086 ft | 393 kts | 345° |
| 2026-05-04 18:36 | 55.67397 | 12.94465 | 20711 ft | 396 kts | 345° |
| 2026-05-04 18:36 | 55.70122 | 12.93639 | 21284 ft | 399 kts | 345° |
| 2026-05-04 18:36 | 55.72871 | 12.92797 | 21832 ft | 402 kts | 345° |
| 2026-05-04 18:36 | 55.75636 | 12.91944 | 22366 ft | 405 kts | 345° |
| 2026-05-04 18:37 | 55.78417 | 12.91077 | 22881 ft | 408 kts | 345° |
| 2026-05-04 18:37 | 55.81226 | 12.90195 | 23400 ft | 411 kts | 345° |
| 2026-05-04 18:37 | 55.84046 | 12.89302 | 23839 ft | 414 kts | 345° |
| 2026-05-04 18:37 | 55.86892 | 12.88395 | 24248 ft | 416 kts | 345° |
| 2026-05-04 18:38 | 55.89755 | 12.87478 | 24651 ft | 419 kts | 345° |
| 2026-05-04 18:38 | 55.92640 | 12.86555 | 25076 ft | 422 kts | 345° |
| 2026-05-04 18:38 | 55.95533 | 12.85634 | 25473 ft | 424 kts | 345° |
| 2026-05-04 18:38 | 55.98447 | 12.84697 | 25853 ft | 427 kts | 345° |
| 2026-05-04 18:39 | 56.01380 | 12.83745 | 26241 ft | 429 kts | 345° |
| 2026-05-04 18:39 | 56.04326 | 12.82780 | 26616 ft | 432 kts | 345° |
| 2026-05-04 18:39 | 56.07245 | 12.81816 | 26985 ft | 434 kts | 345° |
| 2026-05-04 18:39 | 56.10230 | 12.80823 | 27356 ft | 437 kts | 345° |
| 2026-05-04 18:40 | 56.13225 | 12.79817 | 27724 ft | 440 kts | 345° |
| 2026-05-04 18:40 | 56.16249 | 12.78859 | 28092 ft | 444 kts | 350° |
| 2026-05-04 18:40 | 56.19355 | 12.78605 | 28466 ft | 449 kts | 355° |
| 2026-05-04 18:40 | 56.22497 | 12.78528 | 28806 ft | 452 kts | 355° |
| 2026-05-04 18:41 | 56.25649 | 12.78462 | 29146 ft | 455 kts | 355° |
| 2026-05-04 18:41 | 56.28820 | 12.78393 | 29475 ft | 457 kts | 355° |
| 2026-05-04 18:41 | 56.32015 | 12.78320 | 29811 ft | 459 kts | 355° |
| 2026-05-04 18:41 | 56.35212 | 12.78243 | 30229 ft | 459 kts | 355° |
| 2026-05-04 18:42 | 56.38399 | 12.78169 | 30655 ft | 457 kts | 355° |
| 2026-05-04 18:42 | 56.41574 | 12.78100 | 31092 ft | 456 kts | 355° |
| 2026-05-04 18:42 | 56.44738 | 12.78036 | 31525 ft | 454 kts | 355° |
| 2026-05-04 18:42 | 56.47898 | 12.77999 | 31977 ft | 454 kts | 355° |
| 2026-05-04 18:43 | 56.51048 | 12.78012 | 32386 ft | 453 kts | 355° |
| 2026-05-04 18:43 | 56.54207 | 12.78136 | 32811 ft | 455 kts | 1° |
| 2026-05-04 18:43 | 56.57314 | 12.79440 | 33233 ft | 464 kts | 18° |
| 2026-05-04 18:43 | 56.60191 | 12.82167 | 33647 ft | 469 kts | 27° |
| 2026-05-04 18:44 | 56.62984 | 12.85224 | 34058 ft | 468 kts | 27° |
| 2026-05-04 18:44 | 56.63890 | 12.86224 | 34177 ft | 468 kts | 27° |
| 2026-05-04 18:44 | 56.68540 | 12.91386 | 34785 ft | 467 kts | 27° |
| 2026-05-04 18:44 | 56.71323 | 12.94478 | 34941 ft | 468 kts | 27° |
| 2026-05-04 18:45 | 56.74111 | 12.97573 | 34949 ft | 471 kts | 27° |
| 2026-05-04 18:45 | 56.79717 | 13.03792 | 34939 ft | 472 kts | 27° |
| 2026-05-04 18:46 | 56.85318 | 13.10023 | 34932 ft | 472 kts | 27° |
| 2026-05-04 18:46 | 56.90919 | 13.16287 | 34911 ft | 472 kts | 27° |
| 2026-05-04 18:47 | 56.96481 | 13.22522 | 34947 ft | 472 kts | 27° |
| 2026-05-04 18:47 | 57.02131 | 13.28882 | 34921 ft | 473 kts | 27° |
| 2026-05-04 18:48 | 57.07714 | 13.35189 | 34912 ft | 474 kts | 27° |
| 2026-05-04 18:48 | 57.13337 | 13.41560 | 34903 ft | 475 kts | 27° |
| 2026-05-04 18:49 | 57.18963 | 13.47963 | 34902 ft | 475 kts | 27° |
| 2026-05-04 18:49 | 57.24586 | 13.54384 | 34917 ft | 475 kts | 27° |
| 2026-05-04 18:50 | 57.30213 | 13.60830 | 34891 ft | 476 kts | 27° |
| 2026-05-04 18:50 | 57.35842 | 13.67311 | 34896 ft | 476 kts | 27° |
| 2026-05-04 18:51 | 57.41467 | 13.73809 | 34895 ft | 476 kts | 27° |
| 2026-05-04 18:51 | 57.47091 | 13.80322 | 34920 ft | 477 kts | 26° |
| 2026-05-04 18:52 | 57.52721 | 13.86868 | 34898 ft | 477 kts | 27° |
| 2026-05-04 18:52 | 57.57397 | 13.92331 | 34893 ft | 478 kts | 27° |
| 2026-05-04 18:53 | 57.63028 | 13.98923 | 34879 ft | 478 kts | 27° |
| 2026-05-04 18:53 | 57.68658 | 14.05545 | 34872 ft | 478 kts | 27° |
| 2026-05-04 18:54 | 57.74284 | 14.12184 | 34868 ft | 478 kts | 26° |
| 2026-05-04 18:54 | 57.79919 | 14.18835 | 34858 ft | 479 kts | 27° |
| 2026-05-04 18:55 | 57.85523 | 14.25492 | 34854 ft | 479 kts | 27° |
| 2026-05-04 18:55 | 57.93973 | 14.35580 | 34849 ft | 480 kts | 27° |
| 2026-05-04 18:56 | 57.99599 | 14.42336 | 34836 ft | 480 kts | 27° |
| 2026-05-04 18:56 | 58.05229 | 14.49127 | 34834 ft | 480 kts | 27° |
| 2026-05-04 18:57 | 58.10856 | 14.55926 | 34835 ft | 480 kts | 27° |
| 2026-05-04 18:57 | 58.16479 | 14.62746 | 34839 ft | 480 kts | 27° |
| 2026-05-04 18:58 | 58.22100 | 14.69577 | 34829 ft | 480 kts | 27° |
| 2026-05-04 18:58 | 58.27715 | 14.76435 | 34823 ft | 480 kts | 27° |
| 2026-05-04 18:59 | 58.33323 | 14.83334 | 34817 ft | 480 kts | 27° |
| 2026-05-04 18:59 | 58.38902 | 14.90205 | 34818 ft | 481 kts | 27° |
| 2026-05-04 19:00 | 58.44517 | 14.97146 | 34841 ft | 481 kts | 27° |
| 2026-05-04 19:00 | 58.50130 | 15.04127 | 34821 ft | 482 kts | 27° |
| 2026-05-04 19:01 | 58.55750 | 15.11139 | 34815 ft | 482 kts | 27° |
| 2026-05-04 19:01 | 58.61372 | 15.18167 | 34807 ft | 483 kts | 27° |
| 2026-05-04 19:02 | 58.67000 | 15.25227 | 34789 ft | 483 kts | 27° |
| 2026-05-04 19:02 | 58.72621 | 15.32324 | 34785 ft | 484 kts | 27° |
| 2026-05-04 19:03 | 58.78243 | 15.39440 | 34772 ft | 484 kts | 27° |
| 2026-05-04 19:03 | 58.83877 | 15.46602 | 34764 ft | 485 kts | 27° |
| 2026-05-04 19:04 | 58.89506 | 15.53783 | 34759 ft | 485 kts | 27° |
| 2026-05-04 19:04 | 58.95134 | 15.60993 | 34671 ft | 482 kts | 27° |
| 2026-05-04 19:05 | 58.97899 | 15.64554 | 34431 ft | 472 kts | 27° |
| 2026-05-04 19:05 | 59.00607 | 15.68050 | 34185 ft | 464 kts | 27° |
| 2026-05-04 19:05 | 59.03293 | 15.71518 | 33950 ft | 466 kts | 27° |
| 2026-05-04 19:05 | 59.06011 | 15.75018 | 33635 ft | 466 kts | 27° |
| 2026-05-04 19:06 | 59.08693 | 15.78485 | 33230 ft | 461 kts | 27° |
| 2026-05-04 19:06 | 59.11346 | 15.81928 | 32733 ft | 455 kts | 27° |
| 2026-05-04 19:06 | 59.13960 | 15.85330 | 31903 ft | 449 kts | 27° |
| 2026-05-04 19:06 | 59.16536 | 15.88691 | 31087 ft | 444 kts | 27° |
| 2026-05-04 19:07 | 59.19089 | 15.92029 | 30307 ft | 439 kts | 27° |
| 2026-05-04 19:07 | 59.21582 | 15.95294 | 29559 ft | 435 kts | 26° |
| 2026-05-04 19:07 | 59.24088 | 15.98581 | 28708 ft | 431 kts | 26° |
| 2026-05-04 19:07 | 59.26561 | 16.01823 | 27898 ft | 427 kts | 26° |
| 2026-05-04 19:08 | 59.29014 | 16.05045 | 27152 ft | 422 kts | 26° |
| 2026-05-04 19:08 | 59.31439 | 16.08242 | 26409 ft | 418 kts | 26° |
| 2026-05-04 19:08 | 59.33839 | 16.11410 | 25681 ft | 413 kts | 25° |
| 2026-05-04 19:08 | 59.36214 | 16.14546 | 24959 ft | 409 kts | 25° |
| 2026-05-04 19:09 | 59.38485 | 16.17968 | 23905 ft | 424 kts | 39° |
| 2026-05-04 19:09 | 59.40269 | 16.22734 | 22634 ft | 444 kts | 57° |
| 2026-05-04 19:09 | 59.41719 | 16.28193 | 21117 ft | 455 kts | 59° |
| 2026-05-04 19:09 | 59.43163 | 16.33783 | 19562 ft | 464 kts | 59° |
| 2026-05-04 19:10 | 59.44600 | 16.39433 | 18730 ft | 459 kts | 59° |
| 2026-05-04 19:10 | 59.46008 | 16.45011 | 18025 ft | 451 kts | 59° |
| 2026-05-04 19:10 | 59.47394 | 16.50478 | 17236 ft | 443 kts | 59° |
| 2026-05-04 19:10 | 59.48764 | 16.55851 | 16445 ft | 437 kts | 59° |
| 2026-05-04 19:11 | 59.50127 | 16.61178 | 15926 ft | 432 kts | 60° |
| 2026-05-04 19:11 | 59.51466 | 16.66424 | 15411 ft | 426 kts | 60° |
| 2026-05-04 19:11 | 59.52787 | 16.71603 | 14877 ft | 421 kts | 60° |
| 2026-05-04 19:11 | 59.54095 | 16.76742 | 14338 ft | 416 kts | 61° |
| 2026-05-04 19:12 | 59.55382 | 16.81820 | 13809 ft | 411 kts | 61° |
| 2026-05-04 19:12 | 59.57884 | 16.91735 | 12231 ft | 398 kts | 62° |
| 2026-05-04 19:12 | 59.59104 | 16.96574 | 11465 ft | 389 kts | 62° |
| 2026-05-04 19:13 | 59.60300 | 17.01296 | 10715 ft | 380 kts | 60° |
| 2026-05-04 19:13 | 59.61588 | 17.05815 | 10129 ft | 374 kts | 58° |
| 2026-05-04 19:13 | 59.62864 | 17.10173 | 9971 ft | 359 kts | 57° |
| 2026-05-04 19:13 | 59.64066 | 17.14301 | 9867 ft | 344 kts | 57° |
| 2026-05-04 19:14 | 59.65230 | 17.18327 | 9737 ft | 329 kts | 57° |
| 2026-05-04 19:14 | 59.66329 | 17.22154 | 9387 ft | 312 kts | 57° |
| 2026-05-04 19:14 | 59.67384 | 17.25845 | 8928 ft | 305 kts | 58° |
| 2026-05-04 19:14 | 59.68421 | 17.29474 | 8453 ft | 301 kts | 57° |
| 2026-05-04 19:15 | 59.69443 | 17.33061 | 7946 ft | 298 kts | 58° |
| 2026-05-04 19:15 | 59.70460 | 17.36630 | 7451 ft | 296 kts | 58° |
| 2026-05-04 19:15 | 59.71466 | 17.40171 | 6955 ft | 294 kts | 58° |
| 2026-05-04 19:15 | 59.72437 | 17.43612 | 6760 ft | 278 kts | 58° |
| 2026-05-04 19:16 | 59.73363 | 17.46907 | 6356 ft | 270 kts | 58° |
| 2026-05-04 19:16 | 59.74268 | 17.50143 | 5854 ft | 268 kts | 58° |
| 2026-05-04 19:16 | 59.75165 | 17.53355 | 5507 ft | 262 kts | 58° |
| 2026-05-04 19:16 | 59.76032 | 17.56476 | 5235 ft | 256 kts | 58° |
| 2026-05-04 19:17 | 59.76889 | 17.59570 | 4989 ft | 256 kts | 58° |
| 2026-05-04 19:17 | 59.77739 | 17.62656 | 4719 ft | 254 kts | 58° |
| 2026-05-04 19:17 | 59.78585 | 17.65740 | 4418 ft | 253 kts | 58° |
| 2026-05-04 19:17 | 59.79424 | 17.68799 | 4128 ft | 252 kts | 58° |
| 2026-05-04 19:18 | 59.80250 | 17.71813 | 3963 ft | 243 kts | 58° |
| 2026-05-04 19:18 | 59.81052 | 17.74752 | 3555 ft | 243 kts | 58° |
| 2026-05-04 19:18 | 59.81856 | 17.77702 | 3254 ft | 243 kts | 58° |
| 2026-05-04 19:18 | 59.82659 | 17.80637 | 2992 ft | 240 kts | 58° |
| 2026-05-04 19:19 | 59.83449 | 17.83515 | 2812 ft | 234 kts | 58° |
| 2026-05-04 19:19 | 59.84226 | 17.86323 | 2678 ft | 229 kts | 58° |
| 2026-05-04 19:19 | 59.84996 | 17.89084 | 2567 ft | 228 kts | 58° |
| 2026-05-04 19:19 | 59.85595 | 17.91990 | 2474 ft | 229 kts | 83° |
| 2026-05-04 19:20 | 59.85384 | 17.95108 | 2494 ft | 229 kts | 113° |
| 2026-05-04 19:20 | 59.84614 | 17.97834 | 2492 ft | 225 kts | 133° |
| 2026-05-04 19:20 | 59.83479 | 17.99910 | 2489 ft | 220 kts | 152° |
| 2026-05-04 19:20 | 59.82119 | 18.01160 | 2488 ft | 209 kts | 171° |
| 2026-05-04 19:21 | 59.80736 | 18.01535 | 2488 ft | 196 kts | 187° |
| 2026-05-04 19:21 | 59.79424 | 18.01194 | 2479 ft | 188 kts | 198° |
| 2026-05-04 19:21 | 59.78141 | 18.00723 | 2486 ft | 187 kts | 198° |
| 2026-05-04 19:21 | 59.76858 | 18.00253 | 2452 ft | 187 kts | 198° |
| 2026-05-04 19:22 | 59.75584 | 17.99787 | 2304 ft | 185 kts | 198° |
| 2026-05-04 19:22 | 59.74353 | 17.99339 | 2049 ft | 180 kts | 198° |
| 2026-05-04 19:22 | 59.73147 | 17.98904 | 1808 ft | 167 kts | 199° |
| 2026-05-04 19:22 | 59.72042 | 17.98501 | 1595 ft | 158 kts | 200° |
| 2026-05-04 19:23 | 59.71347 | 17.98252 | 1473 ft | 144 kts | 200° |